Terminal Aerodrome Forecast
Issued by NWS

Home | Current Version | Previous Version | Graphics & Text | Print | Product List | Glossary On
Versions: 1 2 3 4 5 6 7 8 9 10 11 12 13 14 15 16
000
FTUS41 KCLE 280900 AAC
TAFFDY
TAF AMD
KFDY 280902Z 2809/2906 05005KT P6SM BKN030
      TEMPO 2809/2811 4SM BR SCT030
     FM281800 06005KT P6SM FEW030
     FM282300 VRB03KT P6SM SCT250=

USA.gov is the U.S. government's official web portal to all federal, state and local government web resources and services.